Time;durP1;ratioP1;P1;durP2;ratioP2;P2;SDS_P1;SDS_P2;PMS_P1;PMS_P2;Temp;Humidity;BMP_temperature;BMP_pressure;BME280_temperature;BME280_humidity;BME280_pressure;Samples;Min_cycle;Max_cycle;Signal;HPM_P1;HPM_P2
2023/09/04 00:02:01;;;;;;;11.77;5.97;;;14.70;99.90;;;;;;5047733;28;21021;-72
2023/09/04 00:04:29;;;;;;;12.40;5.60;;;14.70;99.90;;;;;;5048511;28;20974;-71
2023/09/04 00:06:57;;;;;;;10.60;4.97;;;14.60;99.90;;;;;;5047598;28;20483;-72
2023/09/04 00:09:25;;;;;;;9.90;4.30;;;14.70;99.90;;;;;;5043483;28;20520;-71
2023/09/04 00:11:54;;;;;;;10.43;5.17;;;14.80;99.90;;;;;;5028054;28;20446;-71
2023/09/04 00:14:22;;;;;;;10.57;5.67;;;14.70;99.90;;;;;;5027898;28;20440;-71
2023/09/04 00:16:50;;;;;;;9.60;4.77;;;14.80;99.90;;;;;;5030749;28;20452;-71
2023/09/04 00:19:18;;;;;;;11.40;5.53;;;14.70;99.90;;;;;;5037024;28;20996;-71
2023/09/04 00:21:46;;;;;;;10.50;5.33;;;14.70;99.90;;;;;;5011195;28;20446;-71
2023/09/04 00:24:14;;;;;;;15.67;6.37;;;14.70;99.90;;;;;;5012138;28;20483;-71
2023/09/04 00:26:42;;;;;;;12.13;5.77;;;14.70;99.90;;;;;;5024480;28;20454;-70
2023/09/04 00:29:12;;;;;;;9.83;4.47;;;14.80;99.90;;;;;;5034488;28;20921;-71
2023/09/04 00:31:40;;;;;;;11.73;4.87;;;14.70;99.90;;;;;;5040002;28;20438;-70
2023/09/04 00:34:08;;;;;;;10.33;4.00;;;14.70;99.90;;;;;;5049448;28;20459;-71
2023/09/04 00:36:35;;;;;;;9.90;4.53;;;14.80;99.90;;;;;;5049502;28;20805;-71
2023/09/04 00:39:04;;;;;;;9.83;4.40;;;14.70;99.90;;;;;;5047264;28;20908;-71
2023/09/04 00:41:32;;;;;;;10.20;5.20;;;14.60;99.90;;;;;;5029133;28;20827;-71
2023/09/04 00:44:00;;;;;;;11.00;5.13;;;14.50;99.90;;;;;;5029754;28;21044;-72
2023/09/04 00:46:29;;;;;;;11.87;5.47;;;14.40;99.90;;;;;;5030444;28;20451;-72
2023/09/04 00:48:57;;;;;;;12.00;5.70;;;14.30;99.90;;;;;;5031021;28;20557;-71
2023/09/04 00:51:25;;;;;;;11.13;5.63;;;14.30;99.90;;;;;;5031040;28;20446;-72
2023/09/04 00:53:53;;;;;;;11.00;4.80;;;14.30;99.90;;;;;;5030975;28;20450;-72
2023/09/04 00:56:22;;;;;;;10.43;5.17;;;14.40;99.90;;;;;;5030866;28;20474;-72
2023/09/04 00:58:50;;;;;;;10.50;4.97;;;14.30;99.90;;;;;;5030710;28;20462;-71
2023/09/04 01:01:19;;;;;;;10.80;5.10;;;14.20;99.90;;;;;;5031010;28;20447;-72
2023/09/04 01:03:49;;;;;;;9.60;4.47;;;14.20;99.90;;;;;;5030109;28;20509;-72
2023/09/04 01:06:17;;;;;;;12.60;5.67;;;14.10;99.90;;;;;;5030771;28;20452;-71
2023/09/04 01:08:45;;;;;;;10.00;5.00;;;14.10;99.90;;;;;;5030357;28;20526;-71
2023/09/04 01:11:19;;;;;;;10.00;5.20;;;14.20;99.90;;;;;;5030617;28;20522;-72
2023/09/04 01:13:51;;;;;;;10.80;5.27;;;14.20;99.90;;;;;;5030287;28;20467;-71
2023/09/04 01:16:19;;;;;;;10.57;4.73;;;14.20;99.90;;;;;;5030717;28;20429;-72
2023/09/04 01:18:49;;;;;;;12.87;5.70;;;14.20;99.90;;;;;;5030557;28;20993;-72
2023/09/04 01:21:18;;;;;;;8.93;4.10;;;14.20;99.90;;;;;;5030407;28;20447;-72
2023/09/04 01:23:46;;;;;;;11.90;4.80;;;14.30;99.90;;;;;;5030290;28;20477;-71
2023/09/04 01:26:20;;;;;;;10.60;4.80;;;14.30;99.90;;;;;;5030146;28;20501;-72
2023/09/04 01:28:59;;;;;;;10.13;4.97;;;14.20;99.90;;;;;;5030490;28;20985;-72
2023/09/04 01:31:31;;;;;;;11.27;4.70;;;14.10;99.90;;;;;;5030345;28;20539;-72
2023/09/04 01:34:06;;;;;;;11.30;5.87;;;14.10;99.90;;;;;;5030094;28;20439;-71
2023/09/04 01:36:37;;;;;;;11.67;5.13;;;14.10;99.90;;;;;;5030353;28;20449;-71
2023/09/04 01:39:05;;;;;;;12.47;6.00;;;14.10;99.90;;;;;;5030464;28;20487;-72
2023/09/04 01:41:33;;;;;;;12.90;5.77;;;14.10;99.90;;;;;;5030223;28;20822;-72
2023/09/04 01:44:01;;;;;;;10.27;4.80;;;14.00;99.90;;;;;;5032113;28;21022;-72
2023/09/04 01:46:29;;;;;;;12.37;4.37;;;14.10;99.90;;;;;;5033702;28;20849;-72
2023/09/04 01:48:57;;;;;;;11.90;5.80;;;14.10;99.90;;;;;;5034023;28;20502;-72
2023/09/04 01:51:25;;;;;;;11.73;5.97;;;14.10;99.90;;;;;;5033921;28;20437;-72
2023/09/04 01:53:55;;;;;;;11.53;5.50;;;14.00;99.90;;;;;;5033433;28;20506;-72
2023/09/04 01:56:23;;;;;;;10.10;5.50;;;14.00;99.90;;;;;;5033981;28;21354;-72
2023/09/04 01:58:50;;;;;;;11.47;6.10;;;13.90;99.90;;;;;;5033417;28;20911;-72
2023/09/04 02:01:18;;;;;;;12.40;5.90;;;14.00;99.90;;;;;;5033535;28;20448;-72
2023/09/04 02:03:54;;;;;;;13.27;5.57;;;14.00;99.90;;;;;;5032461;28;20476;-72
2023/09/04 02:06:22;;;;;;;10.50;5.37;;;14.10;99.90;;;;;;5033955;28;20441;-72
2023/09/04 02:08:50;;;;;;;11.63;5.87;;;14.00;99.90;;;;;;5033113;28;20505;-71
2023/09/04 02:11:19;;;;;;;11.87;6.20;;;14.00;99.90;;;;;;5033562;28;20543;-72
2023/09/04 02:13:47;;;;;;;12.00;5.80;;;14.00;99.90;;;;;;5033160;28;20459;-72
2023/09/04 02:16:16;;;;;;;10.67;5.60;;;14.00;99.90;;;;;;5033618;28;20447;-71
2023/09/04 02:18:44;;;;;;;11.67;5.60;;;14.00;99.90;;;;;;5033618;28;20467;-72
2023/09/04 02:21:12;;;;;;;10.67;4.70;;;13.90;99.90;;;;;;5033554;28;20452;-72
2023/09/04 02:23:40;;;;;;;11.23;5.17;;;13.90;99.90;;;;;;5032867;28;20472;-72
2023/09/04 02:26:08;;;;;;;12.87;5.50;;;13.90;99.90;;;;;;5032958;28;21014;-71
2023/09/04 02:28:37;;;;;;;13.53;6.27;;;13.90;99.90;;;;;;5036448;28;20474;-71
2023/09/04 02:31:08;;;;;;;11.10;4.90;;;13.70;99.90;;;;;;5044025;28;20512;-71
2023/09/04 02:33:37;;;;;;;10.10;5.03;;;13.80;99.90;;;;;;5050314;28;20502;-71
2023/09/04 02:36:05;;;;;;;10.17;4.60;;;13.80;99.90;;;;;;5042384;28;20537;-72
2023/09/04 02:38:33;;;;;;;10.30;4.90;;;13.80;99.90;;;;;;5038357;28;20469;-71
2023/09/04 02:41:01;;;;;;;13.63;6.77;;;13.70;99.90;;;;;;5042003;28;20501;-72
2023/09/04 02:43:29;;;;;;;11.40;5.90;;;13.60;99.90;;;;;;5052497;28;20477;-72
2023/09/04 02:45:58;;;;;;;11.70;6.00;;;13.60;99.90;;;;;;5053011;28;20441;-72
2023/09/04 02:48:26;;;;;;;11.07;5.67;;;13.50;99.90;;;;;;5052386;28;20548;-72
2023/09/04 02:50:58;;;;;;;11.67;5.43;;;13.60;99.90;;;;;;5052645;28;20444;-72
2023/09/04 02:53:28;;;;;;;10.10;4.60;;;13.70;99.90;;;;;;5052051;28;20989;-72
2023/09/04 02:55:56;;;;;;;11.37;5.90;;;13.70;99.90;;;;;;5051729;28;20448;-72
2023/09/04 02:58:24;;;;;;;11.40;5.40;;;13.60;99.90;;;;;;5052372;28;20723;-72
2023/09/04 03:00:52;;;;;;;11.20;5.90;;;13.50;99.90;;;;;;5052638;28;20848;-71
2023/09/04 03:03:21;;;;;;;12.00;5.87;;;13.50;99.90;;;;;;5052147;28;20472;-72
2023/09/04 03:05:49;;;;;;;13.60;6.30;;;13.40;99.90;;;;;;5052088;28;20471;-70
2023/09/04 03:08:17;;;;;;;11.73;5.37;;;13.40;99.90;;;;;;5037047;28;20901;-72
2023/09/04 03:10:45;;;;;;;10.90;5.30;;;13.40;99.90;;;;;;5032131;28;21243;-72
2023/09/04 03:13:13;;;;;;;11.60;5.70;;;13.40;99.90;;;;;;5031942;28;20448;-72
2023/09/04 03:15:41;;;;;;;9.90;4.73;;;13.30;99.90;;;;;;5032083;28;20445;-71
2023/09/04 03:18:09;;;;;;;10.63;4.83;;;13.40;99.90;;;;;;5032092;28;20466;-72
2023/09/04 03:20:39;;;;;;;11.00;5.60;;;13.40;99.90;;;;;;5032224;28;20449;-71
2023/09/04 03:23:07;;;;;;;10.80;5.10;;;13.40;99.90;;;;;;5032074;28;20491;-70
2023/09/04 03:25:35;;;;;;;12.80;5.60;;;13.40;99.90;;;;;;5025359;28;21021;-72
2023/09/04 03:28:04;;;;;;;11.33;5.43;;;13.50;99.90;;;;;;5031802;28;20894;-72
2023/09/04 03:30:34;;;;;;;12.10;5.50;;;13.40;99.90;;;;;;5031871;28;20445;-71
2023/09/04 03:33:02;;;;;;;14.40;6.30;;;13.30;99.90;;;;;;5031538;28;20474;-71
2023/09/04 03:35:30;;;;;;;13.60;6.83;;;13.30;99.90;;;;;;5031854;28;20442;-72
2023/09/04 03:37:59;;;;;;;12.33;5.67;;;13.20;99.90;;;;;;5031445;28;20953;-71
2023/09/04 03:40:29;;;;;;;12.00;5.90;;;13.20;99.90;;;;;;5029021;28;20448;-72
2023/09/04 03:42:57;;;;;;;12.57;6.13;;;13.30;99.90;;;;;;5029850;28;20518;-72
2023/09/04 03:45:25;;;;;;;10.30;5.27;;;13.40;99.90;;;;;;5031462;28;20477;-72
2023/09/04 03:47:53;;;;;;;10.87;4.87;;;13.40;99.90;;;;;;5031776;28;21072;-71
2023/09/04 03:50:21;;;;;;;13.10;6.17;;;13.30;99.90;;;;;;5023834;28;20444;-71
2023/09/04 03:52:49;;;;;;;12.63;5.87;;;13.30;99.90;;;;;;5031411;28;20923;-71
2023/09/04 03:55:19;;;;;;;11.90;6.60;;;13.20;99.90;;;;;;5031539;28;20441;-71
2023/09/04 03:57:51;;;;;;;11.70;5.77;;;13.10;99.90;;;;;;5031286;28;20457;-72
2023/09/04 04:00:19;;;;;;;12.50;6.80;;;13.10;99.90;;;;;;5031446;28;20456;-71
2023/09/04 04:02:49;;;;;;;13.40;6.57;;;13.10;99.90;;;;;;5031158;28;20502;-71
2023/09/04 04:05:20;;;;;;;13.50;6.40;;;13.10;99.90;;;;;;5031284;28;20512;-71
2023/09/04 04:07:48;;;;;;;14.37;6.47;;;13.00;99.90;;;;;;5031523;28;20523;-72
2023/09/04 04:10:17;;;;;;;12.70;6.00;;;13.00;99.90;;;;;;5031054;28;20456;-69
2023/09/04 04:12:46;;;;;;;11.93;5.30;;;13.00;99.90;;;;;;5030988;28;20467;-71
2023/09/04 04:15:14;;;;;;;11.53;5.60;;;13.00;99.90;;;;;;5030883;28;20978;-72
2023/09/04 04:17:42;;;;;;;13.67;6.10;;;13.00;99.90;;;;;;5031040;28;20472;-71
2023/09/04 04:20:11;;;;;;;12.40;6.30;;;13.00;99.90;;;;;;5031114;28;20511;-71
2023/09/04 04:22:41;;;;;;;12.00;5.60;;;13.00;99.90;;;;;;5030400;28;20564;-71
2023/09/04 04:25:10;;;;;;;15.07;6.47;;;12.90;99.90;;;;;;5030887;28;20472;-71
2023/09/04 04:27:39;;;;;;;14.40;6.23;;;13.00;99.90;;;;;;5030803;28;20488;-71
2023/09/04 04:30:09;;;;;;;16.43;7.70;;;12.90;99.90;;;;;;5031117;28;20501;-70
2023/09/04 04:32:37;;;;;;;12.73;6.23;;;12.90;99.90;;;;;;5030239;28;20502;-70
2023/09/04 04:35:07;;;;;;;16.43;6.10;;;12.90;99.90;;;;;;5030784;28;20487;-72
2023/09/04 04:37:35;;;;;;;15.53;6.33;;;13.00;99.90;;;;;;5030373;28;20459;-72
2023/09/04 04:40:04;;;;;;;12.80;5.97;;;12.90;99.90;;;;;;5030514;28;20507;-72
2023/09/04 04:42:31;;;;;;;11.70;6.13;;;12.90;99.90;;;;;;5030310;28;20444;-72
2023/09/04 04:45:02;;;;;;;11.17;6.03;;;12.90;99.90;;;;;;5030567;28;20488;-72
2023/09/04 04:47:30;;;;;;;12.23;5.63;;;12.90;99.90;;;;;;5030724;28;20461;-72
2023/09/04 04:49:58;;;;;;;10.33;5.33;;;12.90;99.90;;;;;;5030522;28;20487;-71
2023/09/04 04:52:26;;;;;;;17.13;7.43;;;12.90;99.90;;;;;;5030331;28;20465;-70
2023/09/04 04:54:54;;;;;;;10.13;4.77;;;12.90;99.90;;;;;;5030319;28;20449;-71
2023/09/04 04:57:22;;;;;;;12.23;6.27;;;12.90;99.90;;;;;;5030934;28;20457;-71
2023/09/04 04:59:50;;;;;;;11.07;5.47;;;13.00;99.90;;;;;;5030682;28;20440;-72
2023/09/04 05:02:21;;;;;;;13.37;5.90;;;13.10;99.90;;;;;;5030720;28;20853;-70
2023/09/04 05:04:49;;;;;;;10.60;4.87;;;13.10;99.90;;;;;;5030802;28;20438;-70
2023/09/04 05:07:17;;;;;;;12.30;5.63;;;13.00;99.90;;;;;;5030395;28;20476;-70
2023/09/04 05:09:45;;;;;;;12.70;6.20;;;12.90;99.90;;;;;;5031038;28;20459;-70
2023/09/04 05:12:12;;;;;;;11.67;5.83;;;12.90;99.90;;;;;;5030556;28;20451;-70
2023/09/04 05:14:40;;;;;;;11.50;6.50;;;12.90;99.90;;;;;;5030325;28;20444;-68
2023/09/04 05:17:08;;;;;;;12.90;6.37;;;13.00;99.90;;;;;;5030096;28;20502;-70
2023/09/04 05:19:38;;;;;;;11.90;6.40;;;13.20;99.90;;;;;;5034361;28;20547;-72
2023/09/04 05:22:06;;;;;;;13.63;6.47;;;13.20;99.90;;;;;;5035515;28;20453;-71
2023/09/04 05:24:33;;;;;;;13.90;7.50;;;13.10;99.90;;;;;;5035144;28;20474;-71
2023/09/04 05:27:03;;;;;;;12.20;6.27;;;13.00;99.90;;;;;;5034390;28;20523;-71
2023/09/04 05:29:31;;;;;;;15.77;7.90;;;12.90;99.90;;;;;;5034386;28;20491;-70
2023/09/04 05:31:59;;;;;;;15.77;7.93;;;12.90;99.90;;;;;;5034511;28;20484;-70
2023/09/04 05:34:27;;;;;;;13.60;8.10;;;13.00;99.90;;;;;;5033573;28;20451;-70
2023/09/04 05:36:56;;;;;;;16.40;9.00;;;13.00;99.90;;;;;;5034583;28;20935;-72
2023/09/04 05:39:24;;;;;;;16.03;7.50;;;13.10;99.90;;;;;;5034290;28;20448;-71
2023/09/04 05:41:52;;;;;;;14.50;7.73;;;13.10;99.90;;;;;;5034217;28;20448;-72
2023/09/04 05:44:20;;;;;;;13.73;7.43;;;13.20;99.90;;;;;;5033669;28;20445;-71
2023/09/04 05:46:48;;;;;;;12.63;7.07;;;13.50;99.90;;;;;;5034225;28;20516;-71
2023/09/04 05:49:16;;;;;;;14.70;7.10;;;13.40;99.90;;;;;;5033617;28;20470;-71
2023/09/04 05:51:44;;;;;;;11.80;5.93;;;13.50;99.90;;;;;;5033911;28;20445;-71
2023/09/04 05:54:13;;;;;;;12.10;6.00;;;13.60;99.90;;;;;;5026046;28;20465;-71
2023/09/04 05:56:41;;;;;;;11.40;6.07;;;13.70;99.90;;;;;;5033457;28;20440;-69
2023/09/04 05:59:09;;;;;;;12.20;5.60;;;13.80;99.90;;;;;;5033924;28;20544;-71
2023/09/04 06:01:37;;;;;;;13.53;6.77;;;13.80;99.90;;;;;;5033684;28;20818;-71
2023/09/04 06:04:05;;;;;;;14.67;7.70;;;13.90;99.90;;;;;;5033408;28;20498;-71
2023/09/04 06:06:33;;;;;;;15.73;7.67;;;13.90;99.90;;;;;;5033435;28;20517;-71
2023/09/04 06:09:01;;;;;;;13.33;6.77;;;14.10;99.90;;;;;;5033602;28;20473;-71
2023/09/04 06:11:31;;;;;;;13.50;7.70;;;14.20;99.90;;;;;;5033593;28;20448;-71
2023/09/04 06:13:59;;;;;;;14.90;7.70;;;14.40;99.90;;;;;;5033470;28;20826;-71
2023/09/04 06:16:27;;;;;;;12.57;6.70;;;14.50;99.90;;;;;;5033809;28;20453;-70
2023/09/04 06:18:55;;;;;;;12.70;6.70;;;14.70;99.90;;;;;;5033353;28;21083;-71
2023/09/04 06:21:23;;;;;;;12.63;6.17;;;14.80;99.90;;;;;;5033655;28;21030;-71
2023/09/04 06:23:51;;;;;;;10.97;5.83;;;14.90;99.90;;;;;;5032911;28;20453;-69
2023/09/04 06:26:19;;;;;;;12.47;6.53;;;14.80;99.90;;;;;;5033273;28;20481;-71
2023/09/04 06:28:48;;;;;;;11.43;5.70;;;14.80;99.90;;;;;;5033213;28;20468;-69
2023/09/04 06:31:16;;;;;;;10.70;5.83;;;14.80;99.90;;;;;;5033476;28;20471;-71
2023/09/04 06:33:45;;;;;;;11.70;6.57;;;14.90;99.90;;;;;;5032829;28;20451;-71
2023/09/04 06:36:13;;;;;;;12.87;5.43;;;15.00;99.90;;;;;;5033123;28;20715;-71
2023/09/04 06:38:41;;;;;;;12.07;5.53;;;15.10;99.90;;;;;;5033464;28;20468;-71
2023/09/04 06:41:09;;;;;;;11.23;6.10;;;15.30;99.90;;;;;;5033321;28;20447;-71
2023/09/04 06:43:37;;;;;;;13.30;6.00;;;15.40;99.90;;;;;;5032733;28;21006;-71
2023/09/04 06:46:06;;;;;;;12.90;5.77;;;15.50;99.90;;;;;;5032851;28;20563;-71
2023/09/04 06:48:34;;;;;;;11.80;6.30;;;15.70;99.90;;;;;;5032887;28;20457;-71
2023/09/04 06:51:02;;;;;;;11.87;5.87;;;15.80;99.90;;;;;;5032829;28;20444;-71
2023/09/04 06:53:30;;;;;;;11.47;5.27;;;15.80;99.90;;;;;;5032834;28;20437;-71
2023/09/04 06:55:58;;;;;;;10.43;5.10;;;15.90;99.90;;;;;;5032596;28;20433;-71
2023/09/04 06:58:26;;;;;;;10.30;5.03;;;16.00;99.90;;;;;;5032566;28;20487;-71
2023/09/04 07:00:54;;;;;;;12.13;5.90;;;16.20;99.90;;;;;;5032289;28;20495;-71
2023/09/04 07:03:23;;;;;;;11.17;5.87;;;16.20;99.90;;;;;;5031941;28;20448;-72
2023/09/04 07:05:52;;;;;;;11.17;5.37;;;16.40;99.90;;;;;;5032328;28;20451;-72
2023/09/04 07:08:20;;;;;;;11.00;5.97;;;16.40;99.90;;;;;;5032124;28;20504;-72
2023/09/04 07:10:48;;;;;;;9.93;5.40;;;16.60;99.90;;;;;;5032698;28;20549;-70
2023/09/04 07:13:16;;;;;;;9.53;4.97;;;16.60;99.90;;;;;;5031983;28;20440;-73
2023/09/04 07:15:44;;;;;;;10.10;4.80;;;16.80;99.90;;;;;;5032266;28;20445;-73
2023/09/04 07:18:12;;;;;;;10.47;4.90;;;16.80;99.90;;;;;;5031894;28;20465;-71
2023/09/04 07:20:41;;;;;;;11.30;4.93;;;17.00;99.90;;;;;;5032556;28;20532;-70
2023/09/04 07:23:09;;;;;;;10.27;5.23;;;17.10;99.90;;;;;;5031620;28;20489;-71
2023/09/04 07:25:48;;;;;;;10.67;5.40;;;17.20;99.90;;;;;;5032154;28;20445;-72
2023/09/04 07:28:16;;;;;;;11.50;5.50;;;17.30;99.90;;;;;;5031535;28;20485;-72
2023/09/04 07:30:44;;;;;;;10.40;5.00;;;17.50;99.90;;;;;;5032289;28;20813;-70
2023/09/04 07:33:12;;;;;;;10.37;4.70;;;17.60;99.90;;;;;;5031791;28;20953;-70
2023/09/04 07:35:41;;;;;;;11.73;5.77;;;17.70;99.90;;;;;;5032077;28;20441;-69
2023/09/04 07:38:17;;;;;;;10.73;6.10;;;17.80;99.90;;;;;;5031814;28;20477;-71
2023/09/04 07:40:45;;;;;;;10.90;4.90;;;17.90;99.90;;;;;;5029317;28;20459;-71
2023/09/04 07:43:12;;;;;;;9.63;4.90;;;18.10;99.90;;;;;;5030233;28;20456;-72
2023/09/04 07:45:41;;;;;;;11.80;4.83;;;18.30;99.90;;;;;;5031591;28;20451;-71
2023/09/04 07:48:08;;;;;;;11.97;5.17;;;18.30;99.90;;;;;;5031595;28;20489;-70
2023/09/04 07:50:37;;;;;;;10.67;5.13;;;18.40;99.90;;;;;;5031617;28;20481;-72
2023/09/04 07:53:06;;;;;;;10.43;4.70;;;18.40;99.90;;;;;;5023749;28;21234;-70
2023/09/04 07:55:34;;;;;;;10.10;5.00;;;18.50;99.90;;;;;;5030010;28;20502;-70
2023/09/04 07:58:02;;;;;;;11.87;4.50;;;18.70;99.90;;;;;;5030006;28;20544;-71
2023/09/04 08:00:33;;;;;;;9.53;4.60;;;18.80;99.90;;;;;;5029175;28;20821;-70
2023/09/04 08:03:02;;;;;;;10.17;4.30;;;18.90;99.90;;;;;;5030196;28;20444;-71
2023/09/04 08:05:32;;;;;;;10.13;4.70;;;19.00;99.90;;;;;;5030359;28;20437;-71
2023/09/04 08:08:00;;;;;;;11.97;4.40;;;19.20;99.90;;;;;;5029768;28;20542;-71
2023/09/04 08:10:30;;;;;;;11.93;4.83;;;19.40;99.90;;;;;;5030273;28;20539;-71
2023/09/04 08:12:58;;;;;;;10.43;4.80;;;19.60;99.90;;;;;;5031180;28;20553;-70
2023/09/04 08:15:26;;;;;;;11.03;4.30;;;19.80;99.90;;;;;;5031697;28;20515;-70
2023/09/04 08:17:54;;;;;;;9.47;4.50;;;19.90;99.90;;;;;;5031179;28;20982;-70
2023/09/04 08:20:22;;;;;;;9.50;4.17;;;20.10;99.90;;;;;;5031374;28;20445;-71
2023/09/04 08:22:50;;;;;;;8.60;3.93;;;20.30;99.90;;;;;;5030944;28;20451;-70
2023/09/04 08:25:18;;;;;;;9.50;4.20;;;20.50;99.90;;;;;;5031423;28;20456;-70
2023/09/04 08:27:47;;;;;;;8.33;3.77;;;20.60;99.90;;;;;;5031013;28;21195;-70
2023/09/04 08:30:15;;;;;;;10.87;4.50;;;20.80;99.90;;;;;;5031148;28;20958;-70
2023/09/04 08:32:44;;;;;;;8.77;4.20;;;20.90;99.90;;;;;;5030792;28;20448;-69
2023/09/04 08:35:13;;;;;;;9.57;4.23;;;21.00;99.90;;;;;;5031185;28;20484;-70
2023/09/04 08:37:41;;;;;;;10.30;4.47;;;21.20;99.90;;;;;;5031311;28;20461;-70
2023/09/04 08:40:09;;;;;;;9.40;4.20;;;21.30;99.90;;;;;;5031239;28;20441;-70
2023/09/04 08:42:39;;;;;;;9.10;4.40;;;21.40;99.90;;;;;;5030610;28;20441;-70
2023/09/04 08:45:09;;;;;;;10.30;4.57;;;21.60;99.90;;;;;;5031120;28;20444;-70
2023/09/04 08:47:40;;;;;;;10.47;4.60;;;21.70;99.90;;;;;;5031266;28;21057;-70
2023/09/04 08:50:08;;;;;;;9.13;4.43;;;21.90;99.90;;;;;;5031291;28;20993;-70
2023/09/04 08:52:37;;;;;;;8.53;3.97;;;22.10;99.90;;;;;;5029664;28;20927;-70
2023/09/04 08:55:08;;;;;;;9.83;4.33;;;22.30;99.90;;;;;;5031092;28;20445;-70
2023/09/04 08:57:36;;;;;;;8.23;3.90;;;22.30;99.90;;;;;;5030848;28;20465;-71
2023/09/04 09:00:05;;;;;;;9.53;4.30;;;22.50;99.90;;;;;;5031040;28;21093;-70
2023/09/04 09:02:35;;;;;;;9.90;4.50;;;22.60;99.90;;;;;;5030579;28;20951;-69
2023/09/04 09:05:04;;;;;;;8.77;4.30;;;22.70;99.90;;;;;;5031493;28;20483;-70
2023/09/04 09:07:32;;;;;;;9.00;4.40;;;22.70;99.90;;;;;;5030905;28;20567;-70
2023/09/04 09:10:04;;;;;;;9.53;4.60;;;22.90;99.90;;;;;;5030425;28;20836;-70
2023/09/04 09:12:32;;;;;;;9.13;4.30;;;23.00;99.90;;;;;;5030661;28;20535;-70
2023/09/04 09:15:00;;;;;;;9.17;4.40;;;23.20;99.90;;;;;;5030407;28;21062;-70
2023/09/04 09:17:28;;;;;;;9.67;4.43;;;23.40;99.90;;;;;;5030703;28;20901;-71
2023/09/04 09:19:58;;;;;;;10.27;4.57;;;23.60;99.90;;;;;;5030717;28;20502;-71
2023/09/04 09:22:26;;;;;;;9.43;4.03;;;23.90;99.90;;;;;;5030422;28;20535;-71
2023/09/04 09:24:55;;;;;;;8.93;4.07;;;24.30;99.90;;;;;;5030278;28;20448;-70
2023/09/04 09:27:24;;;;;;;10.00;4.10;;;24.90;99.90;;;;;;5030446;28;20919;-71
2023/09/04 09:29:57;;;;;;;9.50;4.00;;;25.20;99.90;;;;;;5030840;28;20441;-72
2023/09/04 09:32:29;;;;;;;8.27;4.13;;;25.60;99.90;;;;;;5030364;28;20445;-71
2023/09/04 09:35:00;;;;;;;8.73;3.80;;;26.20;99.90;;;;;;5030357;28;20467;-70
2023/09/04 09:37:32;;;;;;;10.67;4.57;;;26.40;99.90;;;;;;5030441;28;20975;-70
2023/09/04 09:40:00;;;;;;;8.40;3.70;;;26.50;99.90;;;;;;5030648;28;20449;-71
2023/09/04 09:42:29;;;;;;;8.10;3.67;;;26.50;99.90;;;;;;5030311;28;20441;-70
2023/09/04 09:44:57;;;;;;;9.10;3.60;;;26.80;99.90;;;;;;5030412;28;20444;-71
2023/09/04 09:47:26;;;;;;;8.47;3.80;;;27.20;98.70;;;;;;5030284;28;20471;-72
2023/09/04 09:49:58;;;;;;;9.73;3.93;;;27.50;97.80;;;;;;5030242;28;20448;-70
2023/09/04 09:52:28;;;;;;;8.23;3.87;;;27.30;97.50;;;;;;5030578;28;20437;-71
2023/09/04 09:54:56;;;;;;;10.53;4.43;;;27.50;95.50;;;;;;5030512;28;20955;-71
2023/09/04 09:57:27;;;;;;;9.07;4.43;;;27.60;94.60;;;;;;5030679;28;20510;-71
2023/09/04 09:59:55;;;;;;;9.20;4.27;;;27.80;94.40;;;;;;5030585;28;20441;-70
2023/09/04 10:02:26;;;;;;;9.43;3.80;;;28.00;93.40;;;;;;5030277;28;20444;-70
2023/09/04 10:04:55;;;;;;;10.43;3.73;;;28.30;91.40;;;;;;5033748;28;20464;-70
2023/09/04 10:07:28;;;;;;;8.57;4.13;;;28.30;89.40;;;;;;5034914;28;20495;-71
2023/09/04 10:10:03;;;;;;;8.83;3.80;;;28.50;90.10;;;;;;5034984;28;20456;-71
2023/09/04 10:12:35;;;;;;;8.13;4.10;;;28.60;88.70;;;;;;5035131;28;20452;-70
2023/09/04 10:15:07;;;;;;;9.30;3.87;;;28.80;81.10;;;;;;5035049;28;20428;-71
2023/09/04 10:17:37;;;;;;;8.53;4.00;;;28.80;83.20;;;;;;5034409;28;20465;-70
2023/09/04 10:20:07;;;;;;;8.33;4.10;;;28.80;78.00;;;;;;5035529;28;20846;-72
2023/09/04 10:22:39;;;;;;;9.03;4.10;;;28.80;79.70;;;;;;5034235;28;20441;-71
2023/09/04 10:25:16;;;;;;;8.30;3.80;;;29.00;80.60;;;;;;5039560;28;20441;-72
2023/09/04 10:27:50;;;;;;;8.40;3.37;;;29.20;79.80;;;;;;5043856;28;21119;-72
2023/09/04 10:30:23;;;;;;;8.73;4.00;;;29.30;77.90;;;;;;5042469;28;20421;-69
2023/09/04 10:32:52;;;;;;;8.40;3.60;;;29.60;72.70;;;;;;5041813;28;20473;-70
2023/09/04 10:35:20;;;;;;;8.03;3.50;;;29.60;75.40;;;;;;5041012;28;20449;-68
2023/09/04 10:37:49;;;;;;;8.10;3.90;;;29.80;74.70;;;;;;5038483;28;20465;-71
2023/09/04 10:40:18;;;;;;;7.73;3.60;;;29.90;71.00;;;;;;5039364;28;20456;-71
2023/09/04 10:42:47;;;;;;;8.33;3.30;;;30.00;71.20;;;;;;5036685;28;20449;-72
2023/09/04 10:45:16;;;;;;;8.77;4.07;;;29.80;69.20;;;;;;5038082;28;20441;-71
2023/09/04 10:47:46;;;;;;;8.33;3.60;;;30.00;69.60;;;;;;5040195;28;20495;-70
2023/09/04 10:50:28;;;;;;;9.40;4.17;;;30.40;68.90;;;;;;5035821;28;20546;-70
2023/09/04 10:52:58;;;;;;;8.50;3.90;;;30.70;62.30;;;;;;5032802;28;20453;-70
2023/09/04 10:55:25;;;;;;;9.37;3.70;;;31.10;64.90;;;;;;5033155;28;20441;-70
2023/09/04 10:57:55;;;;;;;7.70;3.27;;;31.30;62.10;;;;;;5032956;28;20468;-70
2023/09/04 11:00:28;;;;;;;9.10;3.87;;;31.40;61.90;;;;;;5033292;28;20445;-71
2023/09/04 11:02:56;;;;;;;7.70;3.60;;;31.60;60.00;;;;;;5032835;28;20436;-70
2023/09/04 11:05:24;;;;;;;9.07;3.63;;;31.80;55.80;;;;;;5032682;28;20457;-70
2023/09/04 11:07:52;;;;;;;7.77;3.60;;;31.90;55.40;;;;;;5032500;28;20461;-69
2023/09/04 11:10:38;;;;;;;7.87;3.53;;;32.10;55.30;;;;;;5031835;28;20682;-70
2023/09/04 11:13:06;;;;;;;8.40;3.43;;;32.20;55.10;;;;;;5032429;28;20529;-70
2023/09/04 11:15:35;;;;;;;7.90;3.20;;;32.50;52.80;;;;;;5032325;28;20456;-71
2023/09/04 11:18:04;;;;;;;7.53;3.13;;;32.70;51.10;;;;;;5032458;28;20468;-70
2023/09/04 11:20:45;;;;;;;8.50;3.30;;;32.80;50.40;;;;;;5033021;28;20445;-70
2023/09/04 11:23:13;;;;;;;7.80;3.53;;;33.00;49.00;;;;;;5033530;28;20548;-70
2023/09/04 11:25:46;;;;;;;8.50;2.97;;;33.00;51.60;;;;;;5033103;28;20841;-70
2023/09/04 11:28:14;;;;;;;8.07;4.20;;;33.10;49.80;;;;;;5032758;28;20468;-70
2023/09/04 11:30:42;;;;;;;8.77;3.40;;;33.30;50.30;;;;;;5032664;28;20472;-69
2023/09/04 11:33:12;;;;;;;7.93;3.20;;;33.60;49.30;;;;;;5032015;28;20872;-70
2023/09/04 11:35:40;;;;;;;8.07;3.73;;;34.00;48.80;;;;;;5032953;28;20451;-70
2023/09/04 11:38:24;;;;;;;8.10;3.27;;;34.20;45.50;;;;;;5032073;28;20471;-70
2023/09/04 11:40:54;;;;;;;8.83;3.90;;;34.40;46.00;;;;;;5032212;28;20492;-70
2023/09/04 11:43:24;;;;;;;8.70;3.17;;;34.60;46.70;;;;;;5031773;28;20540;-70
2023/09/04 11:45:55;;;;;;;8.17;3.67;;;34.70;44.30;;;;;;5032240;28;20471;-70
2023/09/04 11:48:24;;;;;;;8.87;3.10;;;34.80;44.70;;;;;;5031808;28;20500;-71
2023/09/04 11:50:53;;;;;;;7.50;2.70;;;34.60;43.40;;;;;;5032198;28;20495;-70
2023/09/04 11:53:22;;;;;;;7.80;2.73;;;34.70;44.80;;;;;;5031343;28;21042;-70
2023/09/04 11:55:52;;;;;;;7.47;2.83;;;34.90;44.10;;;;;;5031779;28;20449;-71
2023/09/04 11:58:22;;;;;;;7.93;3.10;;;35.20;42.00;;;;;;5031388;28;20522;-70
2023/09/04 12:00:49;;;;;;;7.70;2.97;;;35.30;42.90;;;;;;5032200;28;20532;-70
2023/09/04 12:03:18;;;;;;;8.33;3.13;;;35.50;42.90;;;;;;5031306;28;20444;-70
2023/09/04 12:05:47;;;;;;;8.00;3.10;;;35.60;40.10;;;;;;5031638;28;20480;-69
2023/09/04 12:08:15;;;;;;;8.30;3.13;;;35.40;40.90;;;;;;5030853;28;20468;-70
2023/09/04 12:10:43;;;;;;;7.30;2.97;;;35.30;39.90;;;;;;5031451;28;21069;-70
2023/09/04 12:13:13;;;;;;;8.30;3.43;;;35.50;41.40;;;;;;5031325;28;20444;-70
2023/09/04 12:15:42;;;;;;;7.77;2.70;;;35.90;39.00;;;;;;5031448;28;20441;-69
2023/09/04 12:18:12;;;;;;;7.80;2.60;;;36.30;40.80;;;;;;5031142;28;21071;-70
2023/09/04 12:20:41;;;;;;;8.10;3.17;;;36.60;40.80;;;;;;5031057;28;20449;-69
2023/09/04 12:23:10;;;;;;;7.73;3.23;;;36.90;38.20;;;;;;5031160;28;20449;-70
2023/09/04 12:25:39;;;;;;;7.50;2.87;;;36.90;37.60;;;;;;5031225;28;20441;-70
2023/09/04 12:28:10;;;;;;;7.50;2.80;;;36.80;38.70;;;;;;5031172;28;20469;-70
2023/09/04 12:30:40;;;;;;;7.40;2.90;;;36.90;39.10;;;;;;5031347;28;20476;-70
2023/09/04 12:33:12;;;;;;;7.20;2.70;;;37.50;37.50;;;;;;5030830;28;20555;-70
2023/09/04 12:35:41;;;;;;;8.43;2.87;;;37.70;37.10;;;;;;5031441;28;20445;-70
2023/09/04 12:38:10;;;;;;;7.53;3.30;;;37.70;36.20;;;;;;5030965;28;20559;-70
2023/09/04 12:40:38;;;;;;;7.07;2.70;;;37.50;35.80;;;;;;5031319;28;20443;-70
2023/09/04 12:43:06;;;;;;;8.50;3.23;;;37.50;37.40;;;;;;5030798;28;20535;-71
2023/09/04 12:45:34;;;;;;;7.80;2.80;;;37.80;37.50;;;;;;5031085;28;20963;-71
2023/09/04 12:48:03;;;;;;;7.77;2.50;;;38.20;35.10;;;;;;5030904;28;21011;-70
2023/09/04 12:50:32;;;;;;;7.30;2.70;;;38.60;34.90;;;;;;5031326;28;20480;-71